Aeroporto :
LOGIN :

Iscrizione | Disclaimer

   EN    FR    IT 

 










Sommario :    VFR   VFR Marginale   IFR   IFR Intensivo   IFR Molto Intensivo
Visibilità : 
Base nubi : 
>= 8 km
>= 3000ft
5 / 8 km
1000 / 3000 ft
1500m / 5 km
500 / 1000 ft
800 / 1500m
200 / 500 ft
< 800m
< 200 ft
Simboli :   Temporali  Nebbia  Neve Forte  Precipitazioni Forti  Vento > 20 kt
SIGMETs :   Varie  Temporali  Ghiacco  Turbolenza  Onda orograficha  Ceneri Vulcaniche






- Altitudine del aeroporto : 266 ft
- Codice IATA : NCL


EGNT - Newcastle

ULTIMO METAR :
  • 140750Z 26017KT 9999 FEW019 04/02 Q0976

METARs OBSOLETI :
  • 140720Z 26020G32KT 9999 FEW022 04/02 Q0975
  • 140650Z 26017KT 9999 FEW020 04/02 Q0975
  • 140620Z 26018G28KT 9999 SCT022 04/02 Q0975
  • 140550Z 26017G27KT 9999 FEW018 04/02 Q0975
  • 140520Z 26017KT 9999 FEW018 04/02 Q0974

TAF TAF EGNT
Valido dal 14 a 06 ore il 15 a 06 ore UTC


140455Z 1406/1506 26015KT 9999 FEW010 SCT030
TEMPO 1406/1421 27018G28KT
PROB30
TEMPO 1406/1412 6000 SHRA BKN010
BECMG 1421/1424 18006KT
PROB30
TEMPO 1423/1506 8000 -RA BKN014
ATIS : +44 191 214 3400



MetMap, La meteo Aeronautica in un colpo d'occhio ! - Copyright ORBIFLY Dicembre 2007 - Disclaimer

ORBIFLY MET'MAP TEAM :

Programmazione e sviluppo : Alexandra Zaïnal
Concezione : Baudouin d'Aumeries
Aiuto per la programmazione : Marc-Olivier Méhu
Supporto tecnico e logistico : Manuel Goepfert
Aiuto per la traduzione : Arnaldo La Scala

Contatto : metmap@orbifly.com




FONTI E CREDITI :

   NOAA